createdAt,value
2018-05-24T00:01:04.682Z,99.90
2018-05-24T00:03:33.036Z,99.90
2018-05-24T00:05:59.964Z,99.90
2018-05-24T00:08:26.501Z,99.90
2018-05-24T00:10:52.989Z,99.90
2018-05-24T00:13:19.497Z,99.90
2018-05-24T00:15:46.823Z,99.90
2018-05-24T00:18:13.301Z,99.90
2018-05-24T00:20:40.534Z,99.90
2018-05-24T00:23:06.963Z,99.90
2018-05-24T00:25:34.132Z,99.90
2018-05-24T00:28:00.705Z,99.90
2018-05-24T00:30:27.718Z,99.90
2018-05-24T00:32:54.139Z,99.90
2018-05-24T00:35:20.776Z,99.90
2018-05-24T00:37:47.144Z,99.90
2018-05-24T00:40:13.622Z,99.90
2018-05-24T00:42:41.729Z,99.90
2018-05-24T00:45:08.191Z,99.90
2018-05-24T00:47:34.601Z,99.90
2018-05-24T00:50:02.130Z,99.90
2018-05-24T00:52:31.425Z,99.90
2018-05-24T00:57:58.385Z,99.90
2018-05-24T01:00:25.468Z,99.90
2018-05-24T01:02:52.317Z,99.90
2018-05-24T01:05:19.116Z,99.90
2018-05-24T01:07:45.594Z,99.90
2018-05-24T01:10:12.052Z,99.90
2018-05-24T01:12:38.893Z,99.90
2018-05-24T01:15:05.738Z,99.90
2018-05-24T01:17:32.323Z,99.90
2018-05-24T01:20:11.770Z,99.90
2018-05-24T01:22:38.330Z,99.90
2018-05-24T01:25:04.782Z,99.90
2018-05-24T01:27:34.089Z,99.90
2018-05-24T01:30:01.210Z,99.90
2018-05-24T01:32:27.685Z,99.90
2018-05-24T01:34:54.136Z,99.90
2018-05-24T01:37:32.792Z,99.90
2018-05-24T01:40:00.146Z,99.90
2018-05-24T01:42:26.588Z,99.90
2018-05-24T01:44:52.977Z,99.90
2018-05-24T01:47:20.483Z,99.90
2018-05-24T01:49:47.668Z,99.90
2018-05-24T01:52:14.143Z,99.90
2018-05-24T01:54:40.637Z,99.90
2018-05-24T01:57:07.133Z,99.90
2018-05-24T01:59:34.333Z,99.90
2018-05-24T02:02:01.616Z,99.90
2018-05-24T02:04:28.762Z,99.90
2018-05-24T02:06:56.149Z,99.90
2018-05-24T02:09:22.572Z,99.90
2018-05-24T02:11:49.101Z,99.90
2018-05-24T02:14:16.222Z,99.90
2018-05-24T02:16:43.032Z,99.90
2018-05-24T02:19:09.881Z,99.90
2018-05-24T02:21:37.523Z,99.90
2018-05-24T02:24:04.424Z,99.90
2018-05-24T02:26:31.623Z,99.90
2018-05-24T02:28:58.618Z,99.90
2018-05-24T02:31:25.088Z,99.90
2018-05-24T02:33:51.542Z,99.90
2018-05-24T02:36:18.034Z,99.90
2018-05-24T02:38:44.588Z,99.90
2018-05-24T02:41:11.098Z,99.90
2018-05-24T02:46:05.713Z,99.90
2018-05-24T02:48:32.846Z,99.90
2018-05-24T02:50:59.330Z,99.90
2018-05-24T02:53:26.868Z,99.90
2018-05-24T02:55:53.333Z,99.90
2018-05-24T02:58:19.721Z,99.90
2018-05-24T03:00:46.336Z,99.90
2018-05-24T03:03:12.778Z,99.90
2018-05-24T03:05:39.266Z,99.90
2018-05-24T03:08:07.758Z,99.90
2018-05-24T03:10:34.221Z,99.90
2018-05-24T03:13:01.788Z,99.90
2018-05-24T03:15:28.233Z,99.90
2018-05-24T03:20:22.779Z,99.90
2018-05-24T03:22:49.413Z,99.90
2018-05-24T03:25:17.019Z,99.90
2018-05-24T03:27:43.503Z,99.90
2018-05-24T03:30:10.046Z,99.90
2018-05-24T03:41:08.282Z,99.90
2018-05-24T03:43:35.469Z,99.90
2018-05-24T03:46:02.695Z,99.90
2018-05-24T03:48:29.200Z,99.90
2018-05-24T03:50:55.649Z,99.90
2018-05-24T03:53:22.098Z,99.90
2018-05-24T03:55:48.510Z,99.90
2018-05-24T03:58:14.940Z,99.90
2018-05-24T04:00:54.532Z,99.90
2018-05-24T04:06:27.034Z,99.90
2018-05-24T04:08:53.469Z,99.90
2018-05-24T04:13:48.936Z,99.90
2018-05-24T04:16:15.294Z,99.90
2018-05-24T04:18:42.761Z,99.90
2018-05-24T04:21:10.105Z,99.90
2018-05-24T04:23:36.626Z,99.90
2018-05-24T04:26:04.044Z,99.90
2018-05-24T04:28:31.969Z,99.90
2018-05-24T04:33:27.362Z,99.90
2018-05-24T04:35:53.840Z,99.90
2018-05-24T04:38:21.011Z,99.90
2018-05-24T04:40:47.438Z,99.90
2018-05-24T04:43:15.281Z,99.90
2018-05-24T04:45:41.729Z,99.90
2018-05-24T04:48:09.285Z,99.90
2018-05-24T04:50:35.791Z,99.90
2018-05-24T04:55:32.634Z,99.90
2018-05-24T04:57:59.060Z,99.90
2018-05-24T05:00:25.477Z,99.90
2018-05-24T05:05:22.241Z,99.90
2018-05-24T05:07:48.637Z,99.90
2018-05-24T05:10:15.090Z,99.90
2018-05-24T05:25:04.448Z,99.90
2018-05-24T05:30:00.718Z,99.90
2018-05-24T05:32:28.866Z,99.90
2018-05-24T05:42:20.568Z,99.90
2018-05-24T05:44:47.802Z,99.90
2018-05-24T05:47:14.305Z,99.90
2018-05-24T05:49:40.821Z,99.90
2018-05-24T05:52:07.818Z,99.90
2018-05-24T05:54:34.919Z,99.90
2018-05-24T05:57:01.329Z,99.90
2018-05-24T05:59:29.307Z,99.90
2018-05-24T06:01:55.945Z,99.90
2018-05-24T06:04:22.882Z,99.90
2018-05-24T06:06:49.510Z,99.90
2018-05-24T06:09:16.081Z,99.90
2018-05-24T06:11:42.718Z,99.90
2018-05-24T06:14:09.978Z,99.90
2018-05-24T06:16:36.553Z,99.90
2018-05-24T06:19:03.584Z,99.90
2018-05-24T06:21:30.682Z,99.90
2018-05-24T06:23:57.586Z,99.90
2018-05-24T06:26:24.080Z,99.90
2018-05-24T06:28:50.917Z,99.90
2018-05-24T06:31:17.509Z,99.90
2018-05-24T06:33:44.089Z,99.90
2018-05-24T06:36:11.429Z,99.90
2018-05-24T06:38:38.776Z,99.90
2018-05-24T06:41:05.890Z,99.90
2018-05-24T06:43:34.796Z,99.90
2018-05-24T06:46:01.177Z,99.90
2018-05-24T06:48:27.581Z,99.90
2018-05-24T06:50:54.009Z,99.90
2018-05-24T06:53:20.402Z,99.90
2018-05-24T06:55:47.537Z,99.90
2018-05-24T06:58:13.970Z,99.90
2018-05-24T07:00:40.495Z,99.90
2018-05-24T07:03:06.935Z,99.90
2018-05-24T07:05:34.902Z,99.90
2018-05-24T07:10:29.455Z,99.90
2018-05-24T07:12:56.682Z,99.90
2018-05-24T07:15:23.565Z,99.90
2018-05-24T07:17:50.773Z,99.90
2018-05-24T07:20:18.753Z,99.90
2018-05-24T07:22:45.232Z,99.90
2018-05-24T07:25:12.118Z,99.90
2018-05-24T07:27:38.895Z,99.90
2018-05-24T07:30:05.707Z,99.90
2018-05-24T07:32:32.224Z,99.90
2018-05-24T07:34:59.144Z,99.90
2018-05-24T07:37:26.948Z,99.90
2018-05-24T07:42:22.300Z,99.90
2018-05-24T07:44:50.152Z,99.90
2018-05-24T07:47:17.094Z,99.90
2018-05-24T07:49:43.813Z,99.90
2018-05-24T07:52:10.849Z,99.90
2018-05-24T07:54:38.122Z,99.90
2018-05-24T07:57:04.596Z,99.90
2018-05-24T07:59:31.003Z,99.90
2018-05-24T08:01:57.891Z,99.90
2018-05-24T08:04:24.351Z,99.90
2018-05-24T08:06:50.719Z,99.90
2018-05-24T08:09:18.781Z,99.90
2018-05-24T08:11:45.510Z,99.90
2018-05-24T08:14:12.679Z,99.90
2018-05-24T08:16:39.259Z,99.90
2018-05-24T08:19:06.542Z,99.90
2018-05-24T08:21:33.662Z,99.90
2018-05-24T08:24:01.064Z,99.90
2018-05-24T08:26:29.033Z,99.90
2018-05-24T08:28:55.493Z,99.90
2018-05-24T08:31:23.476Z,99.90
2018-05-24T08:33:50.984Z,98.60
2018-05-24T08:36:18.154Z,97.20
2018-05-24T08:38:45.138Z,99.90
2018-05-24T08:41:11.584Z,98.30
2018-05-24T08:43:38.355Z,92.10
2018-05-24T08:46:05.711Z,90.40
2018-05-24T08:48:32.183Z,93.40
2018-05-24T08:50:58.649Z,93.10
2018-05-24T08:53:26.507Z,84.70
2018-05-24T08:55:53.229Z,90.40
2018-05-24T08:58:20.773Z,83.70
2018-05-24T09:00:47.965Z,81.80
2018-05-24T09:03:15.372Z,78.00
2018-05-24T09:05:42.022Z,86.60
2018-05-24T09:08:09.332Z,72.50
2018-05-24T09:10:35.854Z,82.90
2018-05-24T09:13:02.346Z,80.10
2018-05-24T09:15:28.950Z,77.10
2018-05-24T09:17:56.343Z,64.60
2018-05-24T09:20:23.576Z,65.00
2018-05-24T09:22:52.396Z,73.10
2018-05-24T09:25:19.784Z,70.10
2018-05-24T09:27:46.243Z,75.50
2018-05-24T09:30:12.651Z,71.60
2018-05-24T09:32:40.248Z,63.50
2018-05-24T09:35:07.578Z,65.70
2018-05-24T09:40:03.259Z,73.90
2018-05-24T09:42:29.833Z,71.90
2018-05-24T09:44:57.950Z,60.40
2018-05-24T09:47:25.371Z,60.80
2018-05-24T09:49:52.016Z,67.80
2018-05-24T09:52:35.288Z,64.60
2018-05-24T09:55:03.959Z,63.30
2018-05-24T09:57:31.559Z,61.20
2018-05-24T10:00:01.628Z,60.60
2018-05-24T10:02:29.440Z,59.80
2018-05-24T10:04:56.058Z,68.80
2018-05-24T10:07:23.312Z,70.20
2018-05-24T10:09:49.949Z,71.80
2018-05-24T10:12:17.021Z,58.20
2018-05-24T10:14:43.883Z,56.30
2018-05-24T10:17:10.932Z,57.40
2018-05-24T10:19:37.464Z,69.50
2018-05-24T10:22:04.877Z,59.00
2018-05-24T10:26:59.708Z,65.80
2018-05-24T10:31:54.925Z,63.40
2018-05-24T10:34:21.502Z,67.30
2018-05-24T10:36:48.799Z,60.00
2018-05-24T10:39:16.829Z,57.40
2018-05-24T10:41:44.697Z,57.50
2018-05-24T10:44:11.207Z,69.30
2018-05-24T10:46:38.607Z,65.80
2018-05-24T10:49:05.824Z,57.60
2018-05-24T10:51:33.208Z,55.90
2018-05-24T10:54:00.993Z,60.00
2018-05-24T10:56:28.485Z,63.30
2018-05-24T10:58:56.181Z,56.50
2018-05-24T11:01:23.783Z,55.10
2018-05-24T11:03:50.919Z,58.90
2018-05-24T11:06:17.856Z,54.50
2018-05-24T11:08:46.281Z,54.10
2018-05-24T11:11:14.192Z,53.40
2018-05-24T11:13:41.144Z,56.70
2018-05-24T11:16:08.681Z,52.40
2018-05-24T11:18:35.299Z,60.00
2018-05-24T11:21:02.905Z,52.10
2018-05-24T11:23:30.444Z,52.70
2018-05-24T11:25:57.087Z,57.10
2018-05-24T11:28:23.643Z,55.50
2018-05-24T11:30:50.229Z,56.30
2018-05-24T11:33:16.941Z,58.90
2018-05-24T11:35:43.576Z,56.90
2018-05-24T11:38:11.327Z,57.60
2018-05-24T11:40:38.098Z,54.90
2018-05-24T11:43:06.020Z,48.80
2018-05-24T11:45:33.650Z,47.70
2018-05-24T11:48:00.478Z,58.00
2018-05-24T11:50:28.127Z,47.10
2018-05-24T11:52:54.738Z,56.60
2018-05-24T11:55:23.673Z,47.60
2018-05-24T11:57:50.198Z,55.90
2018-05-24T12:00:16.905Z,53.60
2018-05-24T12:02:46.625Z,46.30
2018-05-24T12:07:41.474Z,56.10
2018-05-24T12:10:08.196Z,56.30
2018-05-24T12:12:34.963Z,51.50
2018-05-24T12:15:01.485Z,54.40
2018-05-24T12:17:28.754Z,46.90
2018-05-24T12:19:55.154Z,55.10
2018-05-24T12:22:22.781Z,45.50
2018-05-24T12:24:49.349Z,54.60
2018-05-24T12:27:16.842Z,44.40
2018-05-24T12:29:44.131Z,44.30
2018-05-24T12:32:12.388Z,44.00
2018-05-24T12:37:09.191Z,43.00
2018-05-24T12:39:36.301Z,43.20
2018-05-24T12:42:02.972Z,50.00
2018-05-24T12:44:29.445Z,49.80
2018-05-24T12:46:57.597Z,43.80
2018-05-24T12:49:24.598Z,43.90
2018-05-24T12:51:52.717Z,42.90
2018-05-24T12:56:48.275Z,42.60
2018-05-24T12:59:15.166Z,44.80
2018-05-24T13:01:42.580Z,48.20
2018-05-24T13:04:10.183Z,50.20
2018-05-24T13:06:37.716Z,42.80
2018-05-24T13:09:06.271Z,51.60
2018-05-24T13:11:33.484Z,43.50
2018-05-24T13:14:00.050Z,48.90
2018-05-24T13:16:27.479Z,42.90
2018-05-24T13:18:54.340Z,45.60
2018-05-24T13:21:20.856Z,48.40
2018-05-24T13:23:48.921Z,43.70
2018-05-24T13:28:44.399Z,43.10
2018-05-24T13:33:56.179Z,48.50
2018-05-24T13:36:23.382Z,50.90
2018-05-24T13:41:21.273Z,47.30
2018-05-24T13:43:50.931Z,49.40
2018-05-24T13:46:21.282Z,44.20
2018-05-24T13:48:52.046Z,53.00
2018-05-24T13:51:22.310Z,43.60
2018-05-24T13:56:29.990Z,44.00
2018-05-24T13:59:05.756Z,43.30
2018-05-24T14:01:33.754Z,48.00
2018-05-24T14:11:46.457Z,46.80
2018-05-24T14:14:14.198Z,50.40
2018-05-24T14:16:43.883Z,50.90
2018-05-24T14:19:11.756Z,41.70
2018-05-24T14:21:41.365Z,46.90
2018-05-24T14:24:10.626Z,47.70
2018-05-24T14:26:39.733Z,41.60
2018-05-24T14:29:09.025Z,42.30
2018-05-24T14:34:09.544Z,41.90
2018-05-24T14:36:36.727Z,47.70
2018-05-24T14:39:04.809Z,49.60
2018-05-24T14:41:37.778Z,48.80
2018-05-24T14:44:06.868Z,40.40
2018-05-24T14:46:33.599Z,45.10
2018-05-24T14:49:01.716Z,41.40
2018-05-24T14:53:58.469Z,41.40
2018-05-24T14:56:25.031Z,48.10
2018-05-24T14:58:53.392Z,40.60
2018-05-24T15:01:21.007Z,46.40
2018-05-24T15:03:52.477Z,41.20
2018-05-24T15:06:19.477Z,41.40
2018-05-24T15:08:46.394Z,49.00
2018-05-24T15:11:13.748Z,40.90
2018-05-24T15:13:50.386Z,44.70
2018-05-24T15:16:20.333Z,43.80
2018-05-24T15:21:15.930Z,40.80
2018-05-24T15:23:42.675Z,44.30
2018-05-24T15:26:09.203Z,48.50
2018-05-24T15:28:35.813Z,46.80
2018-05-24T15:31:02.243Z,45.10
2018-05-24T15:35:57.939Z,46.80
2018-05-24T15:38:24.476Z,46.40
2018-05-24T15:40:51.365Z,42.20
2018-05-24T15:43:18.622Z,41.00
2018-05-24T15:45:45.048Z,47.60
2018-05-24T15:48:11.840Z,41.60
2018-05-24T15:50:38.316Z,48.80
2018-05-24T15:53:04.694Z,48.10
2018-05-24T15:55:31.061Z,47.30
2018-05-24T15:57:57.550Z,48.20
2018-05-24T16:00:24.743Z,41.00
2018-05-24T16:02:51.321Z,47.90
2018-05-24T16:05:18.496Z,40.60
2018-05-24T16:07:45.940Z,40.00
2018-05-24T16:10:12.960Z,44.10
2018-05-24T16:12:39.625Z,47.00
2018-05-24T16:17:37.233Z,39.70
2018-05-24T16:20:04.878Z,40.40
2018-05-24T16:22:32.506Z,40.10
2018-05-24T16:24:58.989Z,45.00
2018-05-24T16:27:26.502Z,40.90
2018-05-24T16:29:53.023Z,46.30
2018-05-24T16:32:19.441Z,46.50
2018-05-24T16:34:46.380Z,44.50
2018-05-24T16:37:13.713Z,42.50
2018-05-24T16:42:09.308Z,42.60
2018-05-24T16:44:37.041Z,43.20
2018-05-24T16:47:03.842Z,48.60
2018-05-24T16:49:30.716Z,43.00
2018-05-24T16:51:57.261Z,48.40
2018-05-24T16:54:24.964Z,42.90
2018-05-24T16:56:52.142Z,43.00
2018-05-24T16:59:18.573Z,51.20
2018-05-24T17:01:46.646Z,43.70
2018-05-24T17:04:13.198Z,51.70
2018-05-24T17:09:08.348Z,44.50
2018-05-24T17:11:34.914Z,49.50
2018-05-24T17:14:01.848Z,46.40
2018-05-24T17:16:29.173Z,46.20
2018-05-24T17:18:55.726Z,54.50
2018-05-24T17:21:22.497Z,46.40
2018-05-24T17:23:49.367Z,47.70
2018-05-24T17:26:16.081Z,51.30
2018-05-24T17:28:43.122Z,46.50
2018-05-24T17:33:40.206Z,47.50
2018-05-24T17:36:06.946Z,54.90
2018-05-24T17:38:33.367Z,55.20
2018-05-24T17:41:01.144Z,47.20
2018-05-24T17:43:27.658Z,52.80
2018-05-24T17:45:55.233Z,47.40
2018-05-24T17:48:22.499Z,46.60
2018-05-24T17:50:49.027Z,53.80
2018-05-24T17:53:16.423Z,46.10
2018-05-24T17:55:44.288Z,47.00
2018-05-24T17:58:10.917Z,55.00
2018-05-24T18:00:37.756Z,55.40
2018-05-24T18:03:06.305Z,46.70
2018-05-24T18:05:34.326Z,46.70
2018-05-24T18:10:38.098Z,47.20
2018-05-24T18:13:04.710Z,53.40
2018-05-24T18:15:31.684Z,48.60
2018-05-24T18:17:58.390Z,54.50
2018-05-24T18:20:25.630Z,49.70
2018-05-24T18:22:53.649Z,49.00
2018-05-24T18:25:20.525Z,50.10
2018-05-24T18:27:46.968Z,56.10
2018-05-24T18:30:13.521Z,61.00
2018-05-24T18:32:40.769Z,51.80
2018-05-24T18:35:07.443Z,58.30
2018-05-24T18:37:35.063Z,52.20
2018-05-24T18:40:02.026Z,53.70
2018-05-24T18:42:28.517Z,62.30
2018-05-24T18:44:55.444Z,52.00
2018-05-24T18:47:25.398Z,57.70
2018-05-24T18:52:22.327Z,53.90
2018-05-24T18:54:50.553Z,55.20
2018-05-24T18:57:17.718Z,55.20
2018-05-24T18:59:45.663Z,56.20
2018-05-24T19:02:12.186Z,67.10
2018-05-24T19:04:38.727Z,68.20
2018-05-24T19:07:06.345Z,58.30
2018-05-24T19:09:33.643Z,63.20
2018-05-24T19:12:00.792Z,60.00
2018-05-24T19:14:27.453Z,68.30
2018-05-24T19:16:54.070Z,71.30
2018-05-24T19:19:21.033Z,64.10
2018-05-24T19:21:48.554Z,65.70
2018-05-24T19:24:15.129Z,77.60
2018-05-24T19:26:42.006Z,78.50
2018-05-24T19:29:11.835Z,90.40
2018-05-24T19:31:38.828Z,99.90
2018-05-24T19:34:05.402Z,99.90
2018-05-24T19:36:32.861Z,99.90
2018-05-24T19:39:00.317Z,99.90
2018-05-24T19:41:28.500Z,99.90
2018-05-24T19:43:58.024Z,99.90
2018-05-24T19:46:26.574Z,99.90
2018-05-24T19:48:53.864Z,99.90
2018-05-24T19:51:20.413Z,99.90
2018-05-24T19:53:47.700Z,99.90
2018-05-24T19:56:14.919Z,99.90
2018-05-24T19:58:41.437Z,99.90
2018-05-24T20:01:07.925Z,99.90
2018-05-24T20:03:35.297Z,99.90
2018-05-24T20:06:02.622Z,99.90
2018-05-24T20:11:08.175Z,99.90
2018-05-24T20:13:35.110Z,99.90
2018-05-24T20:16:02.323Z,99.90
2018-05-24T20:18:29.539Z,99.90
2018-05-24T20:20:57.291Z,99.90
2018-05-24T20:23:23.921Z,99.90
2018-05-24T20:25:52.148Z,99.90
2018-05-24T20:28:19.862Z,99.90
2018-05-24T20:30:48.732Z,99.90
2018-05-24T20:33:15.267Z,99.90
2018-05-24T20:35:43.014Z,99.90
2018-05-24T20:38:09.599Z,99.90
2018-05-24T20:43:09.918Z,99.90
2018-05-24T20:45:36.478Z,99.90
2018-05-24T20:48:03.249Z,99.90
2018-05-24T20:50:30.130Z,99.90
2018-05-24T20:52:57.718Z,99.90
2018-05-24T20:55:26.440Z,99.90
2018-05-24T20:57:53.233Z,99.90
2018-05-24T21:00:20.048Z,99.90
2018-05-24T21:02:47.206Z,99.90
2018-05-24T21:05:17.253Z,99.90
2018-05-24T21:07:44.865Z,99.90
2018-05-24T21:10:11.416Z,99.90
2018-05-24T21:12:38.086Z,99.90
2018-05-24T21:15:06.625Z,99.90
2018-05-24T21:17:34.630Z,99.90
2018-05-24T21:20:01.893Z,99.90
2018-05-24T21:22:28.795Z,99.90
2018-05-24T21:24:57.220Z,99.90
2018-05-24T21:27:24.263Z,99.90
2018-05-24T21:29:52.247Z,99.90
2018-05-24T21:32:19.499Z,99.90
2018-05-24T21:34:46.090Z,99.90
2018-05-24T21:37:13.780Z,99.90
2018-05-24T21:39:40.210Z,99.90
2018-05-24T21:42:07.220Z,99.90
2018-05-24T21:44:33.965Z,99.90
2018-05-24T21:47:00.532Z,99.90
2018-05-24T21:49:27.202Z,99.90
2018-05-24T21:51:55.196Z,99.90
2018-05-24T21:54:22.321Z,99.90
2018-05-24T21:56:48.834Z,99.90
2018-05-24T21:59:17.387Z,99.90
2018-05-24T22:01:46.592Z,99.90
2018-05-24T22:04:15.810Z,99.90
2018-05-24T22:06:42.477Z,99.90
2018-05-24T22:09:09.773Z,99.90
2018-05-24T22:11:36.603Z,99.90
2018-05-24T22:14:03.174Z,99.90
2018-05-24T22:16:35.450Z,99.90
2018-05-24T22:19:02.831Z,99.90
2018-05-24T22:21:29.294Z,99.90
2018-05-24T22:23:56.874Z,99.90
2018-05-24T22:26:23.401Z,99.90
2018-05-24T22:28:49.833Z,99.90
2018-05-24T22:31:16.958Z,99.90
2018-05-24T22:33:43.512Z,99.90
2018-05-24T22:36:16.997Z,99.90
2018-05-24T22:38:43.554Z,99.90
2018-05-24T22:41:10.121Z,99.90
2018-05-24T22:43:36.930Z,99.90
2018-05-24T22:46:03.512Z,99.90
2018-05-24T22:48:30.115Z,99.90
2018-05-24T22:50:56.655Z,99.90
2018-05-24T22:53:23.988Z,99.90
2018-05-24T22:55:50.530Z,99.90
2018-05-24T22:58:17.087Z,99.90
2018-05-24T23:00:43.955Z,99.90
2018-05-24T23:03:10.465Z,99.90
2018-05-24T23:05:37.233Z,99.90
2018-05-24T23:08:04.480Z,99.90
2018-05-24T23:10:31.103Z,99.90
2018-05-24T23:12:57.666Z,99.90
2018-05-24T23:15:25.543Z,99.90
2018-05-24T23:17:52.304Z,99.90
2018-05-24T23:20:18.830Z,99.90
2018-05-24T23:22:45.410Z,99.90
2018-05-24T23:25:12.295Z,99.90
2018-05-24T23:27:38.764Z,99.90
2018-05-24T23:32:35.277Z,99.90
2018-05-24T23:35:02.565Z,99.90
2018-05-24T23:37:30.949Z,99.90
2018-05-24T23:39:58.353Z,99.90
2018-05-24T23:42:24.899Z,99.90
2018-05-24T23:44:51.611Z,99.90
2018-05-24T23:47:18.166Z,99.90
2018-05-24T23:49:44.710Z,99.90
2018-05-24T23:52:11.391Z,99.90
2018-05-24T23:54:37.907Z,99.90
2018-05-24T23:57:08.563Z,99.90
2018-05-24T23:59:35.172Z,99.90
